Sonic Adventure (DX): Boss Rankings

Records: Times | Rings | Scores | Races | Bosses | Freestyle
Leaders: Times | Rings | Scores | Races | Bosses | Freestyle | Overall
Rank Player Percent Points Date
1 Sonicspeedruner 98.4% 32 02-04-16
2 Gamepro011 97.1% 60 02-04-16
3 Austinf 93.0% 146 02-04-16
4 DarkPolarNight 91.9% 168 02-04-16
5 Jawzun 89.8% 213 02-04-16
6 Parax 88.0% 249 02-04-16
7 ike6252 87.4% 262 02-04-16
8 drminus 85.6% 300 02-04-16
9 Dashjump 85.3% 307 02-04-16
10 Avento128bits 85.1% 311 02-04-16
11 DarkspinesSonic 81.8% 380 02-04-16
12 Coolfansonic 80.3% 410 02-04-16
13 THC98 79.4% 429 02-04-16
14 F-Man 77.2% 475 02-04-16
15 TheRealShadnic 76.8% 483 02-04-16
16 Marth 76.2% 496 02-04-16
17 yoshifan 74.5% 531 02-04-16
18 Mariobutch 73.9% 544 02-04-16
19 PfoSonic 73.1% 561 02-04-16
20 InferSaime 72.8% 567 02-04-16
21 HyperSonic7701 71.0% 605 02-04-16
22 RPGnutter 70.1% 624 02-04-16
23 Paragod 68.5% 657 02-04-16
24 mike89 67.9% 669 02-04-16
25 frankoredstrato 67.6% 675 02-04-16
26 Groudon199 63.7% 758 02-04-16
27 sonicam 63.4% 764 02-04-16
28 SadisticMystic 62.9% 774 02-04-16
29 Stefan 61.5% 803 02-04-16
30 Diamond 60.4% 827 02-04-16
31 bertin 57.8% 880 02-04-16
32 Combo 57.8% 881 02-04-16
33 xXMegaManXx 55.7% 924 02-04-16
34 SkyLights 54.9% 942 02-04-16
35 Dawid8404 52.0% 1001 02-04-16
36 francisco 49.6% 1052 02-04-16
37 Fr3nZy 49.2% 1061 02-04-16
38 OmegaDJ 46.7% 1113 02-04-16
39 Andrea Ritsu 46.6% 1115 02-04-16
40 Omega Rafael Santos 45.8% 1132 02-04-16
41 Arch 45.3% 1141 02-04-16
42 P1 Pause 44.1% 1166 02-04-16
43 magnum12 41.9% 1213 02-04-16
44 VeritasDL 41.7% 1217 02-04-16
45 Auriman1 37.7% 1300 02-04-16
46 James_Bertolli 35.7% 1342 02-04-16
47 Hunters13 33.9% 1380 02-04-16
48 teamblackarms 33.8% 1382 02-04-16
49 FuzZerd 33.3% 1392 02-04-16
50 Drakodan 33.0% 1398 02-04-16
51 Psymar 32.0% 1420 02-04-16
51 Quartz 32.0% 1420 02-04-16
53 eggFL 31.4% 1433 02-04-16
54 Cyan Ryan 30.9% 1443 02-04-16
55 Jerzia 30.8% 1444 02-04-16
56 GerbilSoft 30.2% 1458 02-04-16
57 elecmouse101 29.7% 1467 02-04-16
57 Thorn 29.7% 1467 02-04-16
59 videogamemaster777 29.2% 1478 02-04-16
59 Webber3000 29.2% 1478 02-04-16
61 Mo Player Banned 28.4% 1495 02-04-16
62 Turbos 27.7% 1509 02-04-16
63 Termon 27.3% 1518 02-04-16
64 Flying Fox 25.9% 1547 02-04-16
65 Dave Cramer 25.6% 1554 02-04-16
66 buddychaos0415 24.7% 1572 02-04-16
67 nuckrieg 24.4% 1578 02-04-16
68 Shadow Jacky 23.2% 1603 02-04-16
69 Cream147 21.3% 1643 02-04-16
70 thewaytodawnnn 20.7% 1655 02-04-16
71 supersonicfan 20.7% 1656 02-04-16
72 itsPersonnal 20.5% 1660 02-04-16
73 MiStEr_ShAoLiN 20.4% 1662 02-04-16
74 NintenDan 20.3% 1664 02-04-16
75 Nimrod 20.2% 1666 02-04-16
76 The T 20.0% 1671 02-04-16
77 Cybrax 19.8% 1674 02-04-16
78 supersonic465 19.6% 1679 02-04-16
79 SonicWinDX 19.5% 1681 02-04-16
80 Aitamen 19.1% 1690 02-04-16
81 Cruizer 18.6% 1700 02-04-16
82 VMU Player Banned 17.8% 1716 02-04-16
83 Game_Complete 17.2% 1728 02-04-16
84 The Great Lord Mick 16.3% 1747 02-04-16
85 Questionguy555 16.0% 1753 02-04-16
86 GreatStar 15.5% 1765 02-04-16
87 Spinballwizard 14.8% 1778 02-04-16
88 sonicandamy 14.3% 1789 02-04-16
89 Sondow 14.2% 1791 02-04-16
90 GarnetPrincess 13.0% 1817 02-04-16
91 SonicAD 11.9% 1839 02-04-16
92 Don 11.4% 1850 02-04-16
93 Miles9999 11.2% 1854 02-04-16
94 Siavash Tazari 10.4% 1871 02-04-16
95 BigAL49 10.2% 1875 02-04-16
96 Psyknux 10.1% 1876 02-04-16
97 Werey 9.8% 1884 02-04-16
98 Cutiefox 9.7% 1886 02-04-16
99 joecoolgames 9.6% 1888 02-04-16
100 knuckles_sonic8 9.3% 1893 02-04-16
101 mauserman 9.2% 1896 02-04-16
102 EngiNerd 8.5% 1910 02-04-16
103 Sonic Singularity 8.4% 1912 02-04-16
104 Hipertails12 8.4% 1913 02-04-16
105 dShadow 8.2% 1916 02-04-16
106 Aiko 7.9% 1923 02-04-16
107 Shanekilz 7.8% 1926 02-04-16
108 Therio 7.6% 1930 02-04-16
109 Mastakirby 7.4% 1933 02-04-16
110 chainchumper 6.9% 1943 02-04-16
110 FocusSight64 6.9% 1943 02-04-16
112 sonic29887 6.7% 1947 02-04-16
112 TheChaosEmeraIds 6.7% 1947 02-04-16
114 Chao_Fan 6.4% 1954 02-04-16
115 HHNNBBHHN 5.9% 1964 02-04-16
116 tal39h 5.9% 1965 02-04-16
117 djmat 5.8% 1967 02-04-16
118 paulie9990 5.6% 1970 02-04-16
119 Sogeking 5.4% 1975 02-04-16
120 Brian_pso 5.0% 1984 02-04-16
120 SuperBlitzCraig 5.0% 1984 02-04-16
122 Chawkk 4.9% 1985 02-04-16
123 SpinDashMaster 4.5% 1993 02-04-16
124 MK 4.4% 1995 02-04-16
124 SilvertheAlmighty 4.4% 1995 02-04-16
126 MastaToken 4.2% 2001 02-04-16
127 Badlex727 3.8% 2008 02-04-16
128 SpiritDragon1995 3.8% 2009 02-04-16
129 Sonique Hedgehog 3.7% 2011 02-04-16
130 KinkyCadence 3.5% 2014 02-04-16
131 Mad Andy 3.4% 2017 02-04-16
131 PsyBorg 3.4% 2017 02-04-16
133 FSSRandomvids 3.3% 2020 02-04-16
134 Rolken 2.8% 2029 02-04-16
134 Xia 2.8% 2029 02-04-16
136 andres430 2.5% 2036 02-04-16
137 crazy1993 2.2% 2042 02-04-16
137 shadowblast63 Player Banned 2.2% 2042 02-04-16
139 dabestgamer 2.2% 2043 02-04-16
140 Illidan 2.0% 2046 02-04-16
141 Richied 2.0% 2047 02-04-16
142 DanielTheFalcon 1.8% 2051 02-04-16
142 gamer1245 1.8% 2051 02-04-16
144 Iwannabelink 1.7% 2053 02-04-16
145 oTaiIilLsS 1.3% 2060 02-04-16
146 soniccoloursunleashed 1.2% 2062 02-04-16
147 niscool 1.2% 2063 02-04-16
148 ieatatsonic 1.1% 2066 02-04-16
149 Redd 1.0% 2067 02-04-16
150 Lil_Dude 0.7% 2073 02-04-16
150 LinksDarkArrows 0.7% 2073 02-04-16
152 Cbwade15 0.4% 2079 02-04-16
153 neaolas 0.3% 2082 02-04-16
154 BlankTH 0.2% 2084 02-04-16
155 Heroes_Hater 0.1% 2085 02-04-16
156 S-MS32X-S 0.0% 2087 02-04-16
157 KaM Mark MaK 0.0% 2089 02-04-16
157 MegabombBlade 0.0% 2089 02-04-16

This page is using the New Data Table System. [FUTURE]

Game ID: 3 | Category ID: 6
Hits: 4,182 | Hits This Month: 11 | DB Calls: 24 | Mem Usage: 5.34 MB | Time: 0.20s | Printable

The Sonic Center v3.9
Copyright 2003-2011 by The Sonic Center Team.